createdAt,value
2017-12-14T00:01:19.898Z,98247
2017-12-14T00:03:47.980Z,98256
2017-12-14T00:06:16.132Z,98258
2017-12-14T00:08:44.304Z,98260
2017-12-14T00:11:13.419Z,98261
2017-12-14T00:13:41.528Z,98247
2017-12-14T00:16:09.616Z,98268
2017-12-14T00:18:38.752Z,98272
2017-12-14T00:21:07.624Z,98259
2017-12-14T00:23:35.707Z,98261
2017-12-14T00:26:04.565Z,98272
2017-12-14T00:28:32.672Z,98262
2017-12-14T00:31:00.760Z,98256
2017-12-14T00:33:28.915Z,98243
2017-12-14T00:35:57.979Z,98251
2017-12-14T00:38:26.106Z,98249
2017-12-14T00:40:54.228Z,98247
2017-12-14T00:43:22.304Z,98255
2017-12-14T00:45:50.387Z,98247
2017-12-14T00:48:18.549Z,98013
2017-12-14T00:50:46.734Z,98239
2017-12-14T00:53:14.851Z,98232
2017-12-14T00:55:42.958Z,98241
2017-12-14T00:58:11.070Z,98232
2017-12-14T01:00:41.301Z,98251
2017-12-14T01:03:11.317Z,98238
2017-12-14T01:05:40.156Z,98251
2017-12-14T01:08:10.309Z,98248
2017-12-14T01:10:38.474Z,98243
2017-12-14T01:13:06.642Z,98239
2017-12-14T01:15:35.317Z,98245
2017-12-14T01:18:03.395Z,98235
2017-12-14T01:20:31.583Z,98224
2017-12-14T01:22:59.719Z,98220
2017-12-14T01:25:27.872Z,98217
2017-12-14T01:27:56.047Z,98204
2017-12-14T01:30:24.171Z,98189
2017-12-14T01:32:52.292Z,98203
2017-12-14T01:35:20.559Z,98195
2017-12-14T01:37:48.692Z,98196
2017-12-14T01:40:16.887Z,98205
2017-12-14T01:42:45.851Z,98216
2017-12-14T01:45:14.004Z,98219
2017-12-14T01:47:42.174Z,98212
2017-12-14T01:50:10.553Z,98209
2017-12-14T01:52:38.712Z,98212
2017-12-14T01:55:06.882Z,98221
2017-12-14T01:57:35.088Z,98214
2017-12-14T02:00:03.236Z,98214
2017-12-14T02:02:31.376Z,98201
2017-12-14T02:04:59.436Z,98203
2017-12-14T02:07:28.687Z,98192
2017-12-14T02:09:57.150Z,98196
2017-12-14T02:12:25.240Z,98190
2017-12-14T02:14:53.588Z,98179
2017-12-14T02:17:21.712Z,98168
2017-12-14T02:19:49.828Z,98171
2017-12-14T02:22:17.950Z,98160
2017-12-14T02:24:46.164Z,98157
2017-12-14T02:27:14.286Z,98151
2017-12-14T02:29:42.487Z,98148
2017-12-14T02:32:10.677Z,98152
2017-12-14T02:34:38.787Z,98157
2017-12-14T02:37:06.901Z,98156
2017-12-14T02:39:35.084Z,98158
2017-12-14T02:42:03.164Z,98144
2017-12-14T02:44:31.281Z,98142
2017-12-14T02:46:59.541Z,98146
2017-12-14T02:49:27.617Z,98165
2017-12-14T02:51:55.735Z,98156
2017-12-14T02:54:24.171Z,98179
2017-12-14T02:56:53.204Z,98170
2017-12-14T02:59:21.419Z,98179
2017-12-14T03:01:49.568Z,98187
2017-12-14T03:04:17.631Z,98202
2017-12-14T03:06:45.955Z,98191
2017-12-14T03:09:14.973Z,98216
2017-12-14T03:11:43.067Z,98232
2017-12-14T03:14:11.183Z,98235
2017-12-14T03:16:40.096Z,98210
2017-12-14T03:19:08.357Z,98212
2017-12-14T03:21:37.571Z,98208
2017-12-14T03:24:05.708Z,98211
2017-12-14T03:26:34.687Z,98202
2017-12-14T03:29:02.812Z,98196
2017-12-14T03:31:30.986Z,98189
2017-12-14T03:33:59.077Z,98171
2017-12-14T03:36:27.219Z,98171
2017-12-14T03:38:55.432Z,98181
2017-12-14T03:41:23.543Z,98182
2017-12-14T03:43:54.892Z,98183
2017-12-14T03:46:23.016Z,98193
2017-12-14T03:48:51.094Z,98189
2017-12-14T03:51:19.780Z,98194
2017-12-14T03:53:47.977Z,98209
2017-12-14T03:56:16.107Z,98206
2017-12-14T03:58:44.185Z,98203
2017-12-14T04:01:12.307Z,98217
2017-12-14T04:03:40.417Z,98203
2017-12-14T04:06:09.305Z,98198
2017-12-14T04:08:40.886Z,98211
2017-12-14T04:11:09.044Z,98204
2017-12-14T04:13:37.116Z,98215
2017-12-14T04:16:05.276Z,98205
2017-12-14T04:18:33.585Z,98212
2017-12-14T04:21:01.728Z,98215
2017-12-14T04:23:30.578Z,98219
2017-12-14T04:25:58.748Z,98207
2017-12-14T04:28:27.057Z,98225
2017-12-14T04:30:55.903Z,98230
2017-12-14T04:33:25.123Z,98227
2017-12-14T04:35:53.263Z,98232
2017-12-14T04:38:21.339Z,98239
2017-12-14T04:40:49.891Z,98255
2017-12-14T04:43:18.755Z,98253
2017-12-14T04:45:46.882Z,98245
2017-12-14T04:48:14.960Z,98243
2017-12-14T04:50:43.104Z,98274
2017-12-14T04:53:11.899Z,98270
2017-12-14T04:55:40.015Z,98273
2017-12-14T04:58:08.262Z,98272
2017-12-14T05:00:36.566Z,98287
2017-12-14T05:03:04.708Z,98294
2017-12-14T05:05:32.879Z,98308
2017-12-14T05:08:01.031Z,98306
2017-12-14T05:10:31.046Z,98303
2017-12-14T05:13:00.971Z,98319
2017-12-14T05:15:29.035Z,98311
2017-12-14T05:17:57.996Z,98335
2017-12-14T05:20:26.306Z,98339
2017-12-14T05:22:55.204Z,98336
2017-12-14T05:25:23.343Z,98331
2017-12-14T05:27:51.411Z,98358
2017-12-14T05:30:19.625Z,98354
2017-12-14T05:32:47.691Z,98361
2017-12-14T05:35:15.839Z,98362
2017-12-14T05:37:44.000Z,98362
2017-12-14T05:40:12.100Z,98388
2017-12-14T05:42:40.219Z,98394
2017-12-14T05:45:08.376Z,98391
2017-12-14T05:47:37.435Z,98411
2017-12-14T05:50:05.560Z,98417
2017-12-14T05:52:33.701Z,98425
2017-12-14T05:55:01.891Z,98435
2017-12-14T05:57:29.985Z,98448
2017-12-14T05:59:58.572Z,98440
2017-12-14T06:02:26.652Z,98450
2017-12-14T06:04:54.860Z,98452
2017-12-14T06:07:22.991Z,98464
2017-12-14T06:09:51.071Z,98474
2017-12-14T06:12:19.396Z,98477
2017-12-14T06:14:47.472Z,98496
2017-12-14T06:17:15.551Z,98506
2017-12-14T06:19:43.643Z,98501
2017-12-14T06:22:12.006Z,98517
2017-12-14T06:24:40.186Z,98530
2017-12-14T06:27:08.678Z,98528
2017-12-14T06:29:36.788Z,98526
2017-12-14T06:32:04.921Z,98538
2017-12-14T06:34:32.996Z,98529
2017-12-14T06:37:01.124Z,98551
2017-12-14T06:39:29.967Z,98564
2017-12-14T06:41:58.129Z,98554
2017-12-14T06:44:26.256Z,98571
2017-12-14T06:46:54.327Z,98577
2017-12-14T06:49:22.446Z,98587
2017-12-14T06:51:50.552Z,98579
2017-12-14T06:54:18.732Z,98585
2017-12-14T06:56:46.822Z,98591
2017-12-14T06:59:16.086Z,98591
2017-12-14T07:01:44.143Z,98584
2017-12-14T07:04:12.255Z,98600
2017-12-14T07:06:40.377Z,98611
2017-12-14T07:09:08.462Z,98610
2017-12-14T07:11:36.543Z,98606
2017-12-14T07:14:04.705Z,98609
2017-12-14T07:16:32.791Z,98618
2017-12-14T07:19:00.917Z,98608
2017-12-14T07:21:30.239Z,98622
2017-12-14T07:23:58.355Z,98636
2017-12-14T07:26:26.429Z,98630
2017-12-14T07:28:54.504Z,98620
2017-12-14T07:31:22.747Z,98640
2017-12-14T07:33:50.851Z,98638
2017-12-14T07:36:18.975Z,98650
2017-12-14T07:38:47.063Z,98645
2017-12-14T07:41:15.160Z,98640
2017-12-14T07:44:00.908Z,98644
2017-12-14T07:46:35.293Z,98645
2017-12-14T07:49:21.227Z,98640
2017-12-14T07:51:49.359Z,98641
2017-12-14T07:54:17.516Z,98641
2017-12-14T07:56:45.660Z,98657
2017-12-14T07:59:13.749Z,98639
2017-12-14T08:01:41.809Z,98643
2017-12-14T08:04:09.951Z,98633
2017-12-14T08:06:38.032Z,98643
2017-12-14T08:09:06.142Z,98642
2017-12-14T08:11:34.357Z,98638
2017-12-14T08:14:02.552Z,98643
2017-12-14T08:16:30.669Z,98639
2017-12-14T08:18:58.731Z,98634
2017-12-14T08:21:26.822Z,98636
2017-12-14T08:23:54.957Z,98634
2017-12-14T08:26:24.079Z,98631
2017-12-14T08:28:52.173Z,98637
2017-12-14T08:31:21.049Z,98626
2017-12-14T08:33:49.161Z,98635
2017-12-14T08:36:18.302Z,98624
2017-12-14T08:38:46.427Z,98641
2017-12-14T08:41:14.553Z,98637
2017-12-14T08:43:42.679Z,98648
2017-12-14T08:46:10.767Z,98641
2017-12-14T08:48:39.707Z,98641
2017-12-14T08:51:07.784Z,98639
2017-12-14T08:53:35.865Z,98651
2017-12-14T08:56:05.180Z,98648
2017-12-14T08:58:33.403Z,98648
2017-12-14T09:01:01.508Z,98658
2017-12-14T09:03:29.633Z,98660
2017-12-14T09:05:57.724Z,98672
2017-12-14T09:08:25.854Z,98656
2017-12-14T09:10:53.956Z,98657
2017-12-14T09:13:22.063Z,98655
2017-12-14T09:15:50.957Z,98659
2017-12-14T09:18:19.083Z,98662
2017-12-14T09:20:47.156Z,98666
2017-12-14T09:23:15.271Z,98664
2017-12-14T09:25:43.344Z,98676
2017-12-14T09:28:11.480Z,98675
2017-12-14T09:30:39.578Z,98675
2017-12-14T09:33:07.707Z,98683
2017-12-14T09:35:35.823Z,98686
2017-12-14T09:38:03.938Z,98683
2017-12-14T09:40:33.140Z,98683
2017-12-14T09:43:02.644Z,98676
2017-12-14T09:45:30.968Z,98688
2017-12-14T09:47:59.099Z,98685
2017-12-14T09:50:27.268Z,98702
2017-12-14T09:52:55.433Z,98707
2017-12-14T09:55:23.555Z,98695
2017-12-14T09:57:51.641Z,98700
2017-12-14T10:00:19.795Z,98702
2017-12-14T10:02:47.932Z,98682
2017-12-14T10:05:16.028Z,98692
2017-12-14T10:07:44.135Z,98690
2017-12-14T10:10:12.260Z,98695
2017-12-14T10:12:40.437Z,98682
2017-12-14T10:15:08.860Z,98695
2017-12-14T10:17:37.035Z,98705
2017-12-14T10:20:05.100Z,98687
2017-12-14T10:22:33.254Z,98711
2017-12-14T10:25:01.313Z,98695
2017-12-14T10:27:30.370Z,98691
2017-12-14T10:29:59.261Z,98683
2017-12-14T10:32:28.099Z,98684
2017-12-14T10:34:56.200Z,98669
2017-12-14T10:37:24.426Z,98679
2017-12-14T10:39:52.505Z,98685
2017-12-14T10:42:20.659Z,98678
2017-12-14T10:44:49.786Z,98682
2017-12-14T10:47:17.877Z,98688
2017-12-14T10:49:45.987Z,98672
2017-12-14T10:52:14.927Z,98673
2017-12-14T10:54:43.028Z,98686
2017-12-14T10:57:11.142Z,98664
2017-12-14T10:59:39.257Z,98667
2017-12-14T11:02:07.335Z,98669
2017-12-14T11:04:35.451Z,98673
2017-12-14T11:07:04.329Z,98660
2017-12-14T11:09:33.254Z,98656
2017-12-14T11:12:01.404Z,98658
2017-12-14T11:14:29.503Z,98659
2017-12-14T11:16:57.595Z,98667
2017-12-14T11:19:25.847Z,98669
2017-12-14T11:21:53.983Z,98675
2017-12-14T11:24:22.885Z,98674
2017-12-14T11:26:51.752Z,98669
2017-12-14T11:29:19.851Z,98650
2017-12-14T11:31:50.819Z,98668
2017-12-14T11:34:18.927Z,98668
2017-12-14T11:36:46.995Z,98656
2017-12-14T11:39:15.128Z,98647
2017-12-14T11:41:44.338Z,98644
2017-12-14T11:44:12.514Z,98639
2017-12-14T11:46:40.592Z,98641
2017-12-14T11:49:08.808Z,98644
2017-12-14T11:51:36.948Z,98654
2017-12-14T11:54:05.128Z,98647
2017-12-14T11:56:33.233Z,98647
2017-12-14T11:59:02.203Z,98647
2017-12-14T12:01:30.532Z,98656
2017-12-14T12:03:58.599Z,98638
2017-12-14T12:06:26.694Z,98640
2017-12-14T12:08:55.526Z,98650
2017-12-14T12:11:23.692Z,98661
2017-12-14T12:13:51.798Z,98644
2017-12-14T12:16:20.076Z,98649
2017-12-14T12:18:48.156Z,98641
2017-12-14T12:21:16.274Z,98647
2017-12-14T12:23:44.413Z,98650
2017-12-14T12:26:12.523Z,98639
2017-12-14T12:28:40.607Z,98654
2017-12-14T12:31:08.699Z,98650
2017-12-14T12:33:37.573Z,98642
2017-12-14T12:36:05.697Z,98650
2017-12-14T12:38:33.812Z,98651
2017-12-14T12:41:01.936Z,98649
2017-12-14T12:43:30.108Z,98645
2017-12-14T12:45:58.158Z,98652
2017-12-14T12:48:26.582Z,98656
2017-12-14T12:50:54.704Z,98637
2017-12-14T12:53:23.761Z,98638
2017-12-14T12:55:51.852Z,98644
2017-12-14T12:58:19.969Z,98638
2017-12-14T13:00:48.129Z,98630
2017-12-14T13:03:16.980Z,98635
2017-12-14T13:05:45.088Z,98641
2017-12-14T13:08:14.012Z,98633
2017-12-14T13:10:42.146Z,98625
2017-12-14T13:13:10.179Z,98625
2017-12-14T13:15:38.309Z,98622
2017-12-14T13:18:06.404Z,98626
2017-12-14T13:20:34.521Z,98637
2017-12-14T13:23:02.597Z,98631
2017-12-14T13:25:30.722Z,98632
2017-12-14T13:27:58.807Z,98631
2017-12-14T13:30:28.872Z,98621
2017-12-14T13:32:57.796Z,98625
2017-12-14T13:35:26.856Z,98630
2017-12-14T13:37:55.767Z,98622
2017-12-14T13:40:23.834Z,98629
2017-12-14T13:42:51.947Z,98626
2017-12-14T13:45:21.254Z,98622
2017-12-14T13:47:49.348Z,98622
2017-12-14T13:50:17.459Z,98618
2017-12-14T13:52:45.580Z,98612
2017-12-14T13:55:13.683Z,98620
2017-12-14T13:57:41.833Z,98623
2017-12-14T14:00:09.962Z,98617
2017-12-14T14:02:38.104Z,98615
2017-12-14T14:05:06.979Z,98622
2017-12-14T14:07:35.051Z,98625
2017-12-14T14:10:03.138Z,98624
2017-12-14T14:12:31.991Z,98618
2017-12-14T14:15:00.056Z,98612
2017-12-14T14:17:28.172Z,98617
2017-12-14T14:19:57.020Z,98607
2017-12-14T14:22:27.092Z,98605
2017-12-14T14:24:55.940Z,98611
2017-12-14T14:27:24.019Z,98587
2017-12-14T14:29:52.127Z,98592
2017-12-14T14:32:21.323Z,98593
2017-12-14T14:34:50.210Z,98590
2017-12-14T14:37:19.107Z,98580
2017-12-14T14:39:47.200Z,98582
2017-12-14T14:42:15.283Z,98586
2017-12-14T14:44:43.383Z,98580
2017-12-14T14:47:11.507Z,98581
2017-12-14T14:49:39.672Z,98584
2017-12-14T14:52:08.507Z,98583
2017-12-14T14:54:36.604Z,98586
2017-12-14T14:57:04.718Z,98590
2017-12-14T14:59:32.854Z,98593
2017-12-14T15:02:00.919Z,98599
2017-12-14T15:04:29.047Z,98596
2017-12-14T15:06:57.933Z,98592
2017-12-14T15:09:26.020Z,98599
2017-12-14T15:11:54.143Z,98595
2017-12-14T15:14:22.992Z,98588
2017-12-14T15:16:51.099Z,98593
2017-12-14T15:19:19.216Z,98586
2017-12-14T15:21:47.351Z,98589
2017-12-14T15:24:16.218Z,98575
2017-12-14T15:26:44.308Z,98579
2017-12-14T15:29:12.422Z,98572
2017-12-14T15:31:40.522Z,98567
2017-12-14T15:34:08.616Z,98571
2017-12-14T15:36:36.769Z,98568
2017-12-14T15:39:04.892Z,98565
2017-12-14T15:41:33.042Z,98571
2017-12-14T15:44:01.189Z,98566
2017-12-14T15:46:29.339Z,98566
2017-12-14T15:49:03.112Z,98558
2017-12-14T15:51:31.301Z,98573
2017-12-14T15:54:01.477Z,98574
2017-12-14T15:56:29.684Z,98582
2017-12-14T15:58:57.852Z,98587
2017-12-14T16:01:26.028Z,98582
2017-12-14T16:03:54.234Z,98583
2017-12-14T16:06:22.339Z,98585
2017-12-14T16:08:50.518Z,98574
2017-12-14T16:11:18.640Z,98576
2017-12-14T16:13:47.848Z,98557
2017-12-14T16:16:15.934Z,98563
2017-12-14T16:18:44.060Z,98565
2017-12-14T16:21:12.333Z,98567
2017-12-14T16:23:40.423Z,98553
2017-12-14T16:26:09.327Z,98560
2017-12-14T16:28:37.469Z,98547
2017-12-14T16:31:06.625Z,98531
2017-12-14T16:33:36.089Z,98519
2017-12-14T16:36:04.344Z,98515
2017-12-14T16:38:32.426Z,98507
2017-12-14T16:41:00.628Z,98507
2017-12-14T16:43:28.949Z,98508
2017-12-14T16:45:57.134Z,98502
2017-12-14T16:48:25.386Z,98502
2017-12-14T16:50:53.466Z,98500
2017-12-14T16:53:21.686Z,98486
2017-12-14T16:55:49.909Z,98487
2017-12-14T16:58:18.147Z,98479
2017-12-14T17:00:46.291Z,98489
2017-12-14T17:03:14.499Z,98481
2017-12-14T17:05:43.605Z,98479
2017-12-14T17:08:11.752Z,98470
2017-12-14T17:10:40.672Z,98472
2017-12-14T17:13:08.933Z,98464
2017-12-14T17:15:37.116Z,98469
2017-12-14T17:18:05.273Z,98470
2017-12-14T17:20:34.130Z,98464
2017-12-14T17:23:02.245Z,98472
2017-12-14T17:25:30.395Z,98466
2017-12-14T17:27:58.546Z,98466
2017-12-14T17:30:26.793Z,98468
2017-12-14T17:32:54.978Z,98454
2017-12-14T17:35:23.286Z,98456
2017-12-14T17:37:51.356Z,98459
2017-12-14T17:40:19.548Z,98456
2017-12-14T17:42:49.454Z,98450
2017-12-14T17:45:17.622Z,98445
2017-12-14T17:47:45.856Z,98451
2017-12-14T17:50:15.975Z,98449
2017-12-14T17:52:44.223Z,98444
2017-12-14T17:55:13.384Z,98430
2017-12-14T17:57:41.849Z,98427
2017-12-14T18:00:10.115Z,98431
2017-12-14T18:02:38.948Z,98426
2017-12-14T18:05:07.880Z,98426
2017-12-14T18:07:36.741Z,98416
2017-12-14T18:10:05.616Z,98421
2017-12-14T18:12:34.743Z,98424
2017-12-14T18:15:02.840Z,98428
2017-12-14T18:17:31.020Z,98414
2017-12-14T18:19:59.176Z,98414
2017-12-14T18:22:27.249Z,98404
2017-12-14T18:24:55.313Z,98412
2017-12-14T18:27:23.424Z,98413
2017-12-14T18:29:51.546Z,98403
2017-12-14T18:32:19.732Z,98417
2017-12-14T18:35:13.785Z,98399
2017-12-14T18:38:11.343Z,98400
2017-12-14T18:40:44.215Z,98400
2017-12-14T18:43:12.746Z,98386
2017-12-14T18:45:40.832Z,98384
2017-12-14T18:48:13.200Z,98379
2017-12-14T18:50:42.052Z,98373
2017-12-14T18:53:11.002Z,98372
2017-12-14T18:55:39.192Z,98371
2017-12-14T18:58:07.281Z,98366
2017-12-14T19:00:35.622Z,98362
2017-12-14T19:03:03.906Z,98362
2017-12-14T19:05:32.164Z,98362
2017-12-14T19:08:00.336Z,98362
2017-12-14T19:10:28.460Z,98361
2017-12-14T19:12:56.623Z,98361
2017-12-14T19:15:24.732Z,98362
2017-12-14T19:17:55.019Z,98359
2017-12-14T19:20:23.120Z,98358
2017-12-14T19:22:52.019Z,98360
2017-12-14T19:25:21.199Z,98352
2017-12-14T19:27:49.447Z,98349
2017-12-14T19:30:18.224Z,98339
2017-12-14T19:32:46.401Z,98341
2017-12-14T19:35:14.668Z,98337
2017-12-14T19:37:43.045Z,98341
2017-12-14T19:40:11.244Z,98334
2017-12-14T19:42:39.878Z,98328
2017-12-14T19:45:08.009Z,98320
2017-12-14T19:47:36.131Z,98313
2017-12-14T19:50:04.613Z,98322
2017-12-14T19:52:32.908Z,98322
2017-12-14T19:55:01.224Z,98322
2017-12-14T19:57:33.021Z,98323
2017-12-14T20:00:01.185Z,98314
2017-12-14T20:02:30.311Z,98313
2017-12-14T20:04:58.601Z,98309
2017-12-14T20:07:26.830Z,98311
2017-12-14T20:09:55.173Z,98309
2017-12-14T20:15:23.178Z,98311
2017-12-14T20:17:52.266Z,98319
2017-12-14T20:20:20.538Z,98306
2017-12-14T20:22:48.660Z,98311
2017-12-14T20:25:16.783Z,98309
2017-12-14T20:27:44.974Z,98300
2017-12-14T20:30:13.968Z,98299
2017-12-14T20:32:42.888Z,98302
2017-12-14T20:35:10.961Z,98285
2017-12-14T20:37:39.061Z,98289
2017-12-14T20:40:08.393Z,98282
2017-12-14T20:42:36.574Z,98285
2017-12-14T20:45:05.090Z,98278
2017-12-14T20:47:33.248Z,98282
2017-12-14T20:50:01.542Z,98273
2017-12-14T20:52:29.707Z,98266
2017-12-14T20:54:57.799Z,98261
2017-12-14T20:57:26.111Z,98263
2017-12-14T20:59:56.256Z,98266
2017-12-14T21:02:24.524Z,98266
2017-12-14T21:04:52.696Z,98267
2017-12-14T21:07:21.139Z,98269
2017-12-14T21:09:49.383Z,98281
2017-12-14T21:12:18.598Z,98287
2017-12-14T21:14:47.751Z,98293
2017-12-14T21:17:15.969Z,98292
2017-12-14T21:19:44.124Z,98294
2017-12-14T21:22:12.210Z,98290
2017-12-14T21:24:40.575Z,98298
2017-12-14T21:27:08.715Z,98298
2017-12-14T21:29:36.883Z,98307
2017-12-14T21:32:05.130Z,98300
2017-12-14T21:34:33.275Z,98288
2017-12-14T21:37:01.668Z,98273
2017-12-14T21:39:29.804Z,98286
2017-12-14T21:41:58.100Z,98281
2017-12-14T21:44:26.308Z,98286
2017-12-14T21:46:54.480Z,98274
2017-12-14T21:49:24.362Z,98273
2017-12-14T21:51:52.433Z,98282
2017-12-14T21:54:21.719Z,98274
2017-12-14T21:56:49.965Z,98278
2017-12-14T21:59:18.200Z,98268
2017-12-14T22:01:48.510Z,98282
2017-12-14T22:04:16.583Z,98283
2017-12-14T22:06:44.897Z,98281
2017-12-14T22:09:13.476Z,98281
2017-12-14T22:11:41.574Z,98278
2017-12-14T22:14:09.731Z,98283
2017-12-14T22:16:37.801Z,98282
2017-12-14T22:19:05.959Z,98271
2017-12-14T22:21:34.046Z,98287
2017-12-14T22:24:04.212Z,98282
2017-12-14T22:26:33.079Z,98278
2017-12-14T22:29:01.252Z,98279
2017-12-14T22:31:29.394Z,98284
2017-12-14T22:33:57.436Z,98290
2017-12-14T22:36:25.600Z,98287
2017-12-14T22:38:54.508Z,98291
2017-12-14T22:41:22.652Z,98295
2017-12-14T22:43:51.539Z,98296
2017-12-14T22:46:19.710Z,98290
2017-12-14T22:48:48.764Z,98291
2017-12-14T22:51:16.838Z,98290
2017-12-14T22:53:45.125Z,98290
2017-12-14T22:56:13.258Z,98284
2017-12-14T22:58:41.495Z,98283
2017-12-14T23:01:10.076Z,98289
2017-12-14T23:03:39.042Z,98294
2017-12-14T23:06:07.303Z,98295
2017-12-14T23:08:36.148Z,98302
2017-12-14T23:11:04.981Z,98303
2017-12-14T23:13:33.154Z,98308
2017-12-14T23:16:01.223Z,98317
2017-12-14T23:18:31.560Z,98319
2017-12-14T23:20:59.671Z,98323
2017-12-14T23:23:27.831Z,98324
2017-12-14T23:25:55.943Z,98325
2017-12-14T23:28:24.874Z,98323
2017-12-14T23:30:52.958Z,98328
2017-12-14T23:33:21.066Z,98323
2017-12-14T23:35:49.187Z,98304
2017-12-14T23:38:17.255Z,98308
2017-12-14T23:40:45.559Z,98307
2017-12-14T23:43:13.702Z,98311
2017-12-14T23:45:41.818Z,98302
2017-12-14T23:48:09.955Z,98310
2017-12-14T23:50:38.171Z,98319
2017-12-14T23:53:06.378Z,98302
2017-12-14T23:55:34.483Z,98302
2017-12-14T23:58:02.543Z,98313
